Time;durP1;ratioP1;P1;durP2;ratioP2;P2;SDS_P1;SDS_P2;PMS_P1;PMS_P2;Temp;Humidity;BMP_temperature;BMP_pressure;BME280_temperature;BME280_humidity;BME280_pressure;Samples;Min_cycle;Max_cycle;Signal;HPM_P1;HPM_P2
2021/01/08 00:00:18;;;;;;;30.60;14.73;;;-0.10;99.90;;;;;;5001110;28;20030;-85
2021/01/08 00:02:44;;;;;;;32.53;15.47;;;-0.10;99.90;;;;;;4985478;28;20034;-83
2021/01/08 00:05:10;;;;;;;32.63;14.40;;;-0.10;99.90;;;;;;4997070;28;20023;-83
2021/01/08 00:07:39;;;;;;;29.47;15.07;;;-0.10;99.90;;;;;;5003955;28;20097;-82
2021/01/08 00:10:06;;;;;;;32.78;15.68;;;-0.10;99.90;;;;;;4983477;28;20516;-82
2021/01/08 00:12:34;;;;;;;33.10;14.47;;;-0.10;99.90;;;;;;5000898;28;20034;-83
2021/01/08 00:15:00;;;;;;;31.67;15.50;;;-0.10;99.90;;;;;;4998538;28;20027;-82
2021/01/08 00:17:29;;;;;;;29.43;14.47;;;-0.10;99.90;;;;;;4994192;28;20038;-82
2021/01/08 00:19:55;;;;;;;30.65;14.82;;;-0.10;99.90;;;;;;4972903;28;20133;-82
2021/01/08 00:22:21;;;;;;;31.70;15.17;;;-0.20;99.90;;;;;;4996894;28;20038;-81
2021/01/08 00:24:47;;;;;;;30.93;15.57;;;-0.20;99.90;;;;;;4993339;28;20074;-83
2021/01/08 00:27:13;;;;;;;28.97;14.70;;;-0.10;99.90;;;;;;4989915;28;20038;-82
2021/01/08 00:29:39;;;;;;;30.30;15.13;;;-0.10;99.90;;;;;;4996823;28;20469;-81
2021/01/08 00:32:10;;;;;;;31.63;15.30;;;-0.10;99.90;;;;;;4994694;28;20038;-81
2021/01/08 00:34:35;;;;;;;30.57;14.30;;;-0.10;99.90;;;;;;5000754;28;20039;-83
2021/01/08 00:37:01;;;;;;;27.47;13.53;;;-0.10;99.90;;;;;;4994201;28;20585;-82
2021/01/08 00:39:27;;;;;;;30.03;14.63;;;-0.10;99.90;;;;;;4973463;28;20105;-82
2021/01/08 00:41:52;;;;;;;26.70;12.83;;;-0.10;99.90;;;;;;4991060;28;20053;-82
2021/01/08 00:44:18;;;;;;;26.23;13.03;;;-0.10;99.90;;;;;;4993271;28;20030;-82
2021/01/08 00:46:49;;;;;;;30.53;15.03;;;-0.10;99.90;;;;;;4977773;28;20097;-81
2021/01/08 00:49:15;;;;;;;30.97;14.50;;;-0.10;99.90;;;;;;4997777;28;20112;-81
2021/01/08 00:51:41;;;;;;;26.53;13.20;;;-0.10;99.90;;;;;;4987527;28;20633;-82
2021/01/08 00:54:07;;;;;;;25.90;12.70;;;0.00;99.90;;;;;;4992704;28;20109;-81
2021/01/08 00:56:33;;;;;;;28.83;13.93;;;0.00;99.90;;;;;;4991453;28;20751;-82
2021/01/08 00:58:59;;;;;;;25.97;12.87;;;0.00;99.90;;;;;;4994218;28;20029;-82
2021/01/08 01:01:25;;;;;;;27.70;13.03;;;0.00;99.90;;;;;;5006606;28;20030;-82
2021/01/08 01:03:51;;;;;;;26.87;12.20;;;0.00;99.90;;;;;;5019687;28;20172;-82
2021/01/08 01:06:32;;;;;;;30.63;13.73;;;0.00;99.90;;;;;;5014314;28;20042;-83
2021/01/08 01:08:59;;;;;;;27.43;13.40;;;0.00;99.90;;;;;;4993359;28;20030;-82
2021/01/08 01:11:26;;;;;;;26.43;12.90;;;0.00;99.90;;;;;;4998386;28;20046;-82
2021/01/08 01:13:56;;;;;;;26.10;13.17;;;0.00;99.90;;;;;;4998809;28;20057;-84
2021/01/08 01:16:24;;;;;;;27.23;13.37;;;0.00;99.90;;;;;;4995163;28;20033;-81
2021/01/08 01:18:52;;;;;;;25.83;12.83;;;0.00;99.90;;;;;;5000287;28;20477;-83
2021/01/08 01:21:18;;;;;;;27.77;12.97;;;0.00;99.90;;;;;;4993458;28;20089;-83
2021/01/08 01:23:45;;;;;;;28.13;13.10;;;0.00;99.90;;;;;;4986825;28;20181;-84
2021/01/08 01:26:11;;;;;;;28.00;14.47;;;0.00;99.90;;;;;;4994293;28;20037;-82
2021/01/08 01:28:37;;;;;;;27.90;14.13;;;0.00;99.90;;;;;;4980072;28;20059;-82
2021/01/08 01:31:03;;;;;;;27.83;13.50;;;0.00;99.90;;;;;;4968977;28;20078;-82
2021/01/08 01:33:30;;;;;;;28.30;13.50;;;0.00;99.90;;;;;;4980718;28;20033;-83
2021/01/08 01:35:56;;;;;;;24.60;12.30;;;-0.10;99.90;;;;;;4983502;28;20038;-84
2021/01/08 01:38:22;;;;;;;26.70;13.30;;;-0.10;99.90;;;;;;4963997;28;20026;-82
2021/01/08 01:40:48;;;;;;;27.03;13.00;;;-0.10;99.90;;;;;;4988009;28;20030;-83
2021/01/08 01:43:14;;;;;;;27.33;13.53;;;-0.10;99.90;;;;;;4987509;28;20150;-81
2021/01/08 01:45:40;;;;;;;27.30;13.33;;;-0.10;99.90;;;;;;4991851;28;20038;-83
2021/01/08 01:48:06;;;;;;;28.33;13.67;;;-0.10;99.90;;;;;;4978270;28;20031;-83
2021/01/08 01:50:32;;;;;;;27.83;13.47;;;-0.10;99.90;;;;;;4975025;28;20502;-83
2021/01/08 01:52:59;;;;;;;26.73;12.93;;;-0.10;99.90;;;;;;4985686;28;20031;-83
2021/01/08 01:55:26;;;;;;;28.00;13.37;;;-0.10;99.90;;;;;;4967151;28;20610;-83
2021/01/08 01:57:52;;;;;;;28.53;13.40;;;-0.10;99.90;;;;;;4977153;28;20034;-82
2021/01/08 02:00:19;;;;;;;24.33;13.43;;;-0.10;99.90;;;;;;4980471;28;20126;-82
2021/01/08 02:03:05;;;;;;;26.63;13.33;;;-0.10;99.90;;;;;;4979210;28;20030;-82
2021/01/08 02:05:31;;;;;;;26.33;12.70;;;-0.20;99.90;;;;;;4915151;29;20047;-83
2021/01/08 02:08:03;;;;;;;26.17;12.97;;;-0.20;99.90;;;;;;4903484;29;20103;-82
2021/01/08 02:10:54;;;;;;;26.23;12.30;;;-0.20;99.90;;;;;;4917525;29;20047;-81
2021/01/08 02:13:28;;;;;;;24.73;12.00;;;-0.20;99.90;;;;;;4918290;29;20142;-81
2021/01/08 02:15:57;;;;;;;21.90;11.67;;;-0.20;99.90;;;;;;4918248;29;20059;-84
2021/01/08 02:18:26;;;;;;;24.10;11.73;;;-0.20;99.90;;;;;;4916612;29;20074;-82
2021/01/08 02:20:52;;;;;;;23.70;12.25;;;-0.20;99.90;;;;;;4903117;29;20288;-81
2021/01/08 02:23:29;;;;;;;25.23;12.87;;;-0.20;99.90;;;;;;4930337;29;20063;-82
2021/01/08 02:25:56;;;;;;;24.90;12.03;;;-0.20;99.90;;;;;;4924614;29;20131;-83
2021/01/08 02:28:25;;;;;;;26.87;13.23;;;-0.20;99.90;;;;;;4932852;29;20047;-82
2021/01/08 02:30:52;;;;;;;27.38;12.88;;;-0.20;99.90;;;;;;4929370;29;20078;-81
2021/01/08 02:33:19;;;;;;;26.27;14.00;;;-0.20;99.90;;;;;;4942928;29;20067;-81
2021/01/08 02:35:48;;;;;;;24.77;12.93;;;-0.20;99.90;;;;;;4937056;29;20040;-82
2021/01/08 02:38:18;;;;;;;27.47;12.30;;;-0.20;99.90;;;;;;4936681;29;20119;-82
2021/01/08 02:40:49;;;;;;;26.37;13.77;;;-0.20;99.90;;;;;;4934119;29;20114;-81
2021/01/08 02:43:18;;;;;;;24.37;12.20;;;-0.20;99.90;;;;;;4966272;28;20073;-82
2021/01/08 02:45:44;;;;;;;25.90;12.48;;;-0.20;99.90;;;;;;4979453;28;20026;-81
2021/01/08 02:48:11;;;;;;;26.40;12.47;;;-0.20;99.90;;;;;;4973960;28;20070;-82
2021/01/08 02:50:36;;;;;;;26.70;12.10;;;-0.20;99.90;;;;;;4952207;28;20046;-81
2021/01/08 02:53:09;;;;;;;29.70;14.07;;;-0.20;99.90;;;;;;4979429;28;20038;-80
2021/01/08 02:55:38;;;;;;;27.00;12.87;;;-0.20;99.90;;;;;;4954702;28;20101;-82
2021/01/08 02:58:04;;;;;;;24.05;11.95;;;-0.30;99.90;;;;;;4971883;28;20035;-82
2021/01/08 03:00:32;;;;;;;25.37;13.20;;;-0.30;99.90;;;;;;4991641;28;20078;-82
2021/01/08 03:02:59;;;;;;;24.60;11.83;;;-0.20;99.90;;;;;;4973443;28;20031;-81
2021/01/08 03:05:27;;;;;;;26.73;13.63;;;-0.30;99.90;;;;;;4973853;28;20027;-81
2021/01/08 03:07:53;;;;;;;28.23;13.50;;;-0.20;99.90;;;;;;4977495;28;20109;-83
2021/01/08 03:10:19;;;;;;;25.10;11.70;;;-0.30;99.90;;;;;;4970315;28;20054;-81
2021/01/08 03:12:55;;;;;;;26.80;13.10;;;-0.30;99.90;;;;;;4977643;28;20026;-81
2021/01/08 03:15:20;;;;;;;27.63;14.00;;;-0.30;99.90;;;;;;4971063;28;20023;-83
2021/01/08 03:17:46;;;;;;;29.50;13.67;;;-0.30;99.90;;;;;;4971964;28;20077;-82
2021/01/08 03:20:12;;;;;;;28.73;13.17;;;-0.30;99.90;;;;;;4963998;28;20742;-82
2021/01/08 03:22:38;;;;;;;27.07;13.53;;;-0.30;99.90;;;;;;4975911;28;20050;-81
2021/01/08 03:25:04;;;;;;;26.63;12.50;;;-0.30;99.90;;;;;;4993621;28;20034;-82
2021/01/08 03:27:29;;;;;;;28.63;13.93;;;-0.30;99.90;;;;;;4996298;28;20389;-82
2021/01/08 03:29:55;;;;;;;28.30;13.87;;;-0.30;99.90;;;;;;5014278;28;20035;-82
2021/01/08 03:32:20;;;;;;;25.87;12.20;;;-0.40;99.90;;;;;;5014661;28;20007;-82
2021/01/08 03:34:46;;;;;;;29.17;12.40;;;-0.40;99.90;;;;;;5017134;28;20022;-82
2021/01/08 03:37:12;;;;;;;29.33;14.27;;;-0.40;99.90;;;;;;5007083;28;20034;-81
2021/01/08 03:39:37;;;;;;;25.17;12.67;;;-0.40;99.90;;;;;;4996370;28;20038;-79
2021/01/08 03:42:03;;;;;;;29.90;14.73;;;-0.40;99.90;;;;;;4996223;28;20093;-82
2021/01/08 03:44:29;;;;;;;29.23;13.73;;;-0.40;99.90;;;;;;4994995;28;20711;-81
2021/01/08 03:46:54;;;;;;;29.97;14.47;;;-0.40;99.90;;;;;;4993751;28;20113;-82
2021/01/08 03:49:20;;;;;;;27.90;12.70;;;-0.40;99.90;;;;;;4994454;28;20105;-82
2021/01/08 03:51:45;;;;;;;27.37;13.63;;;-0.50;99.90;;;;;;4994015;28;20164;-82
2021/01/08 03:54:11;;;;;;;28.70;13.93;;;-0.40;99.90;;;;;;4989101;28;20423;-82
2021/01/08 03:56:37;;;;;;;27.67;12.80;;;-0.40;99.90;;;;;;4990538;28;20765;-81
2021/01/08 03:59:02;;;;;;;26.27;12.33;;;-0.40;99.90;;;;;;4991307;28;20050;-83
2021/01/08 04:01:28;;;;;;;29.50;15.43;;;-0.50;99.90;;;;;;4994780;28;20037;-82
2021/01/08 04:03:54;;;;;;;26.63;12.87;;;-0.50;99.90;;;;;;4995096;28;20056;-82
2021/01/08 04:06:19;;;;;;;27.20;13.97;;;-0.50;99.90;;;;;;4972508;28;20061;-82
2021/01/08 04:08:45;;;;;;;27.37;14.27;;;-0.50;99.90;;;;;;4995152;28;20060;-81
2021/01/08 04:11:10;;;;;;;29.20;14.23;;;-0.50;99.90;;;;;;4991045;28;20038;-81
2021/01/08 04:13:36;;;;;;;28.23;14.20;;;-0.50;99.90;;;;;;5000484;28;20046;-82
2021/01/08 04:16:02;;;;;;;29.00;14.30;;;-0.50;99.90;;;;;;4992677;28;20077;-81
2021/01/08 04:18:28;;;;;;;29.27;14.57;;;-0.50;99.90;;;;;;4982894;28;20117;-81
2021/01/08 04:20:53;;;;;;;25.43;12.23;;;-0.50;99.90;;;;;;4991430;28;20062;-82
2021/01/08 04:23:20;;;;;;;30.73;14.03;;;-0.50;99.90;;;;;;4988136;28;20584;-83
2021/01/08 04:25:46;;;;;;;25.87;12.27;;;-0.50;99.90;;;;;;4994220;28;20038;-82
2021/01/08 04:28:11;;;;;;;33.10;14.30;;;-0.50;99.90;;;;;;4988252;28;20022;-81
2021/01/08 04:30:37;;;;;;;28.90;13.43;;;-0.50;99.90;;;;;;4983169;28;20080;-80
2021/01/08 04:33:03;;;;;;;30.13;15.27;;;-0.50;99.90;;;;;;4993757;28;20045;-82
2021/01/08 04:35:28;;;;;;;28.90;13.40;;;-0.50;99.90;;;;;;4987924;28;20045;-81
2021/01/08 04:37:54;;;;;;;29.27;14.63;;;-0.50;99.90;;;;;;4995166;28;20062;-84
2021/01/08 04:40:20;;;;;;;31.87;14.73;;;-0.50;99.90;;;;;;4970590;28;20057;-82
2021/01/08 04:42:46;;;;;;;25.87;12.63;;;-0.50;99.90;;;;;;4966375;28;20027;-83
2021/01/08 04:45:11;;;;;;;29.23;14.30;;;-0.50;99.90;;;;;;4981860;28;20044;-82
2021/01/08 04:47:38;;;;;;;32.83;16.10;;;-0.50;99.90;;;;;;4984512;28;20054;-82
2021/01/08 04:50:05;;;;;;;29.80;14.10;;;-0.50;99.90;;;;;;4977635;28;20663;-82
2021/01/08 04:52:35;;;;;;;31.80;14.60;;;-0.50;99.90;;;;;;4981510;28;20040;-82
2021/01/08 04:55:01;;;;;;;31.05;15.07;;;-0.50;99.90;;;;;;4989793;28;20072;-82
2021/01/08 04:57:29;;;;;;;29.43;14.10;;;-0.50;99.90;;;;;;4979060;28;20039;-84
2021/01/08 04:59:54;;;;;;;33.07;14.97;;;-0.50;99.90;;;;;;4987914;28;20069;-83
2021/01/08 05:02:20;;;;;;;32.27;14.67;;;-0.50;99.90;;;;;;4988230;28;20470;-81
2021/01/08 05:04:46;;;;;;;30.40;14.63;;;-0.50;99.90;;;;;;4992217;28;20489;-82
2021/01/08 05:07:11;;;;;;;29.83;15.13;;;-0.50;99.90;;;;;;4982149;28;20022;-84
2021/01/08 05:09:37;;;;;;;35.03;13.50;;;-0.50;99.90;;;;;;4987888;28;20053;-81
2021/01/08 05:12:03;;;;;;;31.30;14.13;;;-0.50;99.90;;;;;;4975393;28;20046;-82
2021/01/08 05:14:29;;;;;;;25.03;11.73;;;-0.40;99.90;;;;;;4993604;28;20027;-81
2021/01/08 05:16:55;;;;;;;30.40;13.13;;;-0.50;99.90;;;;;;4972634;28;20100;-83
2021/01/08 05:19:24;;;;;;;29.77;11.87;;;-0.40;99.90;;;;;;4980936;28;20506;-82
2021/01/08 05:21:54;;;;;;;34.13;14.87;;;-0.40;99.90;;;;;;4984668;28;20389;-82
2021/01/08 05:24:23;;;;;;;31.13;15.80;;;-0.40;99.90;;;;;;4972873;28;20074;-82
2021/01/08 05:26:50;;;;;;;31.65;14.18;;;-0.40;99.90;;;;;;4979421;28;20089;-82
2021/01/08 05:29:16;;;;;;;31.77;13.97;;;-0.40;99.90;;;;;;4983641;28;20066;-83
2021/01/08 05:31:42;;;;;;;30.20;13.27;;;-0.40;99.90;;;;;;5009558;28;20086;-83
2021/01/08 05:34:08;;;;;;;32.33;15.50;;;-0.40;99.90;;;;;;4992745;28;20032;-84
2021/01/08 05:36:36;;;;;;;33.33;15.37;;;-0.40;99.90;;;;;;4987208;28;20182;-82
2021/01/08 05:39:03;;;;;;;37.37;15.87;;;-0.40;99.90;;;;;;4952190;28;20098;-82
2021/01/08 05:41:32;;;;;;;28.63;13.40;;;-0.40;99.90;;;;;;4974291;28;20058;-82
2021/01/08 05:44:00;;;;;;;33.30;14.38;;;-0.40;99.90;;;;;;4960111;28;20030;-83
2021/01/08 05:46:30;;;;;;;32.30;13.97;;;-0.40;99.90;;;;;;4988365;28;20050;-82
2021/01/08 05:49:01;;;;;;;31.03;13.53;;;-0.40;99.90;;;;;;4962348;28;20039;-82
2021/01/08 05:51:29;;;;;;;31.57;14.60;;;-0.40;99.90;;;;;;4974931;28;20039;-84
2021/01/08 05:53:59;;;;;;;34.80;16.23;;;-0.40;99.90;;;;;;4972530;28;20031;-81
2021/01/08 05:56:26;;;;;;;31.30;14.77;;;-0.40;99.90;;;;;;4978715;28;20026;-81
2021/01/08 05:58:51;;;;;;;32.93;15.73;;;-0.40;99.90;;;;;;4981081;28;20030;-82
2021/01/08 06:01:18;;;;;;;22.10;10.37;;;-0.40;99.90;;;;;;4974368;28;20065;-81
2021/01/08 06:03:45;;;;;;;30.67;14.30;;;-0.40;99.90;;;;;;4973242;28;20494;-84
2021/01/08 06:06:12;;;;;;;31.67;14.00;;;-0.40;99.90;;;;;;4988525;28;20058;-81
2021/01/08 06:08:54;;;;;;;32.33;14.10;;;-0.40;99.90;;;;;;4998452;28;20604;-82
2021/01/08 06:11:21;;;;;;;34.03;15.87;;;-0.40;99.90;;;;;;4980386;28;20058;-84
2021/01/08 06:13:52;;;;;;;31.37;13.67;;;-0.40;99.90;;;;;;5007249;28;20022;-82
2021/01/08 06:16:19;;;;;;;33.77;15.10;;;-0.40;99.90;;;;;;4996134;28;20026;-84
2021/01/08 06:18:47;;;;;;;28.67;14.33;;;-0.40;99.90;;;;;;4987940;28;20034;-82
2021/01/08 06:21:14;;;;;;;36.17;15.43;;;-0.50;99.90;;;;;;4971231;28;20460;-82
2021/01/08 06:23:47;;;;;;;30.00;13.93;;;-0.50;99.90;;;;;;4992463;28;20053;-82
2021/01/08 06:26:20;;;;;;;24.77;10.67;;;-0.50;99.90;;;;;;4988136;28;20030;-82
2021/01/08 06:28:50;;;;;;;29.43;13.13;;;-0.50;99.90;;;;;;5001386;28;20087;-81
2021/01/08 06:31:24;;;;;;;26.17;10.93;;;-0.50;99.90;;;;;;4992705;28;20169;-83
2021/01/08 06:33:54;;;;;;;28.70;13.27;;;-0.50;99.90;;;;;;4990795;28;20030;-84
2021/01/08 06:36:22;;;;;;;25.67;12.17;;;-0.50;99.90;;;;;;4991718;28;20060;-83
2021/01/08 06:38:50;;;;;;;27.47;12.20;;;-0.50;99.90;;;;;;4989889;28;20049;-81
2021/01/08 06:41:17;;;;;;;25.03;11.40;;;-0.50;99.90;;;;;;5002706;28;20034;-84
2021/01/08 06:43:50;;;;;;;26.90;12.57;;;-0.50;99.90;;;;;;5007375;28;20026;-82
2021/01/08 06:46:28;;;;;;;22.43;10.37;;;-0.50;99.90;;;;;;5006263;28;20056;-81
2021/01/08 06:49:05;;;;;;;24.17;11.73;;;-0.50;99.90;;;;;;4995987;28;20478;-82
2021/01/08 06:51:36;;;;;;;25.10;10.57;;;-0.50;99.90;;;;;;4992345;28;20374;-81
2021/01/08 06:54:07;;;;;;;26.90;13.50;;;-0.50;99.90;;;;;;4985991;28;20041;-81
2021/01/08 06:56:40;;;;;;;24.83;10.20;;;-0.50;99.90;;;;;;4992909;28;20038;-83
2021/01/08 06:59:15;;;;;;;24.73;11.00;;;-0.50;99.90;;;;;;4995019;28;20057;-82
2021/01/08 07:01:59;;;;;;;25.47;11.53;;;-0.50;99.90;;;;;;4989419;28;20557;-81
2021/01/08 07:04:26;;;;;;;23.33;11.30;;;-0.50;99.90;;;;;;4996870;28;20070;-81
2021/01/08 07:06:58;;;;;;;25.47;11.80;;;-0.50;99.90;;;;;;4993386;28;20460;-82
2021/01/08 07:09:34;;;;;;;24.40;11.23;;;-0.50;99.90;;;;;;4993248;28;20026;-80
2021/01/08 07:12:00;;;;;;;23.63;10.77;;;-0.50;99.90;;;;;;4986764;28;20046;-83
2021/01/08 07:14:26;;;;;;;19.87;9.00;;;-0.50;99.90;;;;;;4994574;28;20029;-85
2021/01/08 07:16:54;;;;;;;21.83;9.77;;;-0.50;99.90;;;;;;4983174;28;20031;-85
2021/01/08 07:19:23;;;;;;;22.47;9.90;;;-0.50;99.90;;;;;;4976146;28;20034;-85
2021/01/08 07:21:53;;;;;;;21.75;10.07;;;-0.50;99.90;;;;;;5009602;28;20108;-83
2021/01/08 07:24:28;;;;;;;24.27;10.23;;;-0.50;99.90;;;;;;4981156;28;20057;-87
2021/01/08 07:26:53;;;;;;;18.63;8.97;;;-0.50;99.90;;;;;;4998068;28;20022;-83
2021/01/08 07:29:28;;;;;;;21.03;9.83;;;-0.50;99.90;;;;;;4994044;28;20026;-83
2021/01/08 07:31:57;;;;;;;18.13;7.63;;;-0.50;99.90;;;;;;4985689;28;20038;-84
2021/01/08 07:34:36;;;;;;;21.13;9.03;;;-0.50;99.90;;;;;;4977611;28;20034;-86
2021/01/08 07:37:02;;;;;;;19.05;9.18;;;-0.50;99.90;;;;;;4997651;28;20026;-85
2021/01/08 07:39:46;;;;;;;17.20;8.10;;;-0.50;99.90;;;;;;4993466;28;20121;-87
2021/01/08 07:42:30;;;;;;;18.60;8.57;;;-0.50;99.90;;;;;;4975620;28;20030;-84
2021/01/08 07:44:56;;;;;;;18.60;8.90;;;-0.50;99.90;;;;;;5001758;28;20500;-88
2021/01/08 07:47:26;;;;;;;20.97;10.57;;;-0.50;99.90;;;;;;5011799;28;20019;-88
2021/01/08 07:50:10;;;;;;;18.07;9.00;;;-0.50;99.90;;;;;;4993949;28;20026;-89
2021/01/08 07:52:44;;;;;;;21.93;10.23;;;-0.50;99.90;;;;;;4988856;28;20077;-88
2021/01/08 07:55:30;;;;;;;20.13;8.97;;;-0.50;99.90;;;;;;4968045;28;20026;-79
2021/01/08 07:58:03;;;;;;;22.40;10.83;;;-0.50;99.90;;;;;;5003310;28;20026;-88
2021/01/08 08:00:31;;;;;;;21.77;9.33;;;-0.40;99.90;;;;;;5014381;28;20023;-88
2021/01/08 08:02:59;;;;;;;25.07;11.27;;;-0.40;99.90;;;;;;5009491;28;20030;-85
2021/01/08 08:05:27;;;;;;;23.23;11.07;;;-0.40;99.90;;;;;;5023846;28;20050;-87
2021/01/08 08:07:57;;;;;;;25.07;11.53;;;-0.40;99.90;;;;;;5020066;28;20941;-87
2021/01/08 08:10:26;;;;;;;24.67;9.93;;;-0.40;99.90;;;;;;5017532;28;20022;-88
2021/01/08 08:12:52;;;;;;;24.80;11.43;;;-0.40;99.90;;;;;;5015576;28;20060;-87
2021/01/08 08:15:19;;;;;;;22.03;10.67;;;-0.30;99.90;;;;;;4997942;28;20092;-86
2021/01/08 08:17:45;;;;;;;21.27;9.73;;;-0.30;99.90;;;;;;4993428;28;20033;-86
2021/01/08 08:20:23;;;;;;;21.47;8.97;;;-0.30;99.90;;;;;;4978310;28;20397;-88
2021/01/08 08:22:52;;;;;;;17.47;7.40;;;-0.30;99.90;;;;;;4995118;28;20088;-84
2021/01/08 08:25:31;;;;;;;25.15;10.15;;;-0.20;99.90;;;;;;4969366;28;20034;-82
2021/01/08 08:28:00;;;;;;;20.10;8.50;;;-0.20;99.90;;;;;;4995917;28;20134;-84
2021/01/08 08:30:28;;;;;;;22.92;9.77;;;-0.20;99.90;;;;;;5017335;28;20320;-88
2021/01/08 08:32:54;;;;;;;21.70;10.50;;;-0.10;99.90;;;;;;5016629;28;20050;-87
2021/01/08 08:35:21;;;;;;;24.23;10.57;;;-0.10;99.90;;;;;;5021381;28;20033;-86
2021/01/08 08:37:57;;;;;;;22.40;10.57;;;0.00;99.90;;;;;;5003518;28;20026;-83
2021/01/08 08:40:27;;;;;;;21.53;9.13;;;0.10;99.90;;;;;;4998803;28;20041;-83
2021/01/08 08:42:56;;;;;;;21.63;11.47;;;0.10;99.90;;;;;;4991281;28;20029;-84
2021/01/08 08:45:33;;;;;;;22.70;11.03;;;0.20;99.90;;;;;;4976886;28;20027;-82
2021/01/08 08:48:04;;;;;;;24.83;11.13;;;0.30;99.90;;;;;;4994374;28;20023;-82
2021/01/08 08:50:35;;;;;;;22.43;10.97;;;0.30;99.90;;;;;;5006861;28;20041;-84
2021/01/08 08:53:14;;;;;;;20.93;10.03;;;0.40;99.90;;;;;;5013211;28;20061;-85
2021/01/08 08:55:41;;;;;;;17.40;7.87;;;0.40;99.90;;;;;;5003817;28;20030;-86
2021/01/08 08:58:12;;;;;;;19.47;9.00;;;0.40;99.90;;;;;;5001895;28;20034;-85
2021/01/08 09:00:42;;;;;;;21.90;10.27;;;0.40;99.90;;;;;;4980786;28;20034;-89
2021/01/08 09:03:21;;;;;;;18.53;8.87;;;0.50;99.90;;;;;;4997581;28;20115;-87
2021/01/08 09:05:52;;;;;;;19.45;9.68;;;0.50;99.90;;;;;;4998735;28;20030;-89
2021/01/08 09:08:25;;;;;;;19.70;9.13;;;0.40;99.90;;;;;;5009470;28;20065;-85
2021/01/08 09:11:15;;;;;;;20.53;10.50;;;0.50;99.90;;;;;;5001109;28;20089;-88
2021/01/08 09:13:50;;;;;;;21.20;9.50;;;0.50;99.90;;;;;;5002919;28;20056;-84
2021/01/08 09:16:43;;;;;;;18.07;10.27;;;0.50;99.90;;;;;;4988403;28;20525;-85
2021/01/08 09:19:22;;;;;;;17.60;8.67;;;0.60;99.90;;;;;;4976339;28;20034;-86
2021/01/08 09:21:50;;;;;;;19.33;9.90;;;0.60;99.90;;;;;;4989986;28;20117;-84
2021/01/08 09:24:29;;;;;;;19.47;9.23;;;0.60;99.90;;;;;;4992522;28;20138;-86
2021/01/08 09:27:01;;;;;;;18.27;8.10;;;0.60;99.90;;;;;;4975743;28;20153;-87
2021/01/08 09:29:34;;;;;;;14.77;7.43;;;0.50;99.90;;;;;;5000243;28;20045;-85
2021/01/08 09:32:05;;;;;;;21.30;9.87;;;0.50;99.90;;;;;;4990354;28;20420;-89
2021/01/08 09:34:31;;;;;;;21.73;9.93;;;0.50;99.90;;;;;;5016440;28;20042;-92
2021/01/08 09:36:59;;;;;;;18.63;9.27;;;0.50;99.90;;;;;;4970969;28;20041;-82
2021/01/08 09:39:27;;;;;;;20.40;9.73;;;0.50;99.90;;;;;;5011252;28;20038;-91
2021/01/08 09:42:00;;;;;;;15.83;7.23;;;0.60;99.90;;;;;;4999241;28;20406;-89
2021/01/08 09:44:38;;;;;;;19.07;10.03;;;0.60;99.90;;;;;;5010472;28;20034;-92
2021/01/08 09:47:08;;;;;;;17.00;8.03;;;0.70;99.90;;;;;;5013837;28;20038;-87
2021/01/08 09:49:51;;;;;;;20.05;9.27;;;0.70;99.90;;;;;;4991519;28;20149;-88
2021/01/08 09:52:28;;;;;;;20.83;9.97;;;0.70;99.90;;;;;;4994962;28;20045;-91
2021/01/08 09:54:55;;;;;;;16.73;7.93;;;0.80;99.90;;;;;;4993322;28;20105;-91
2021/01/08 09:57:28;;;;;;;20.88;9.43;;;0.80;99.90;;;;;;5008442;28;20069;-80
2021/01/08 09:59:58;;;;;;;16.37;9.03;;;0.80;99.90;;;;;;4998311;28;20022;-80
2021/01/08 10:02:40;;;;;;;16.93;7.77;;;0.90;99.90;;;;;;4990020;28;20089;-79
2021/01/08 10:05:31;;;;;;;19.00;9.63;;;0.90;99.90;;;;;;4977162;28;22015;-82
2021/01/08 10:08:00;;;;;;;20.08;9.45;;;1.00;99.90;;;;;;5012182;28;20045;-93
2021/01/08 10:10:27;;;;;;;15.88;6.85;;;1.00;99.90;;;;;;5008044;28;20121;-79
2021/01/08 10:12:58;;;;;;;16.83;7.65;;;0.80;99.90;;;;;;4992917;28;20030;-81
2021/01/08 10:15:47;;;;;;;17.30;9.40;;;0.80;99.90;;;;;;4986139;28;20050;-80
2021/01/08 10:18:21;;;;;;;16.33;8.63;;;0.90;99.90;;;;;;4999200;28;20018;-80
2021/01/08 10:20:52;;;;;;;16.30;8.32;;;0.90;99.90;;;;;;4977651;28;20026;-79
2021/01/08 10:23:20;;;;;;;16.80;7.32;;;1.00;99.90;;;;;;4992654;28;20667;-80
2021/01/08 10:25:46;;;;;;;17.33;8.40;;;0.90;99.90;;;;;;5004141;28;20018;-79
2021/01/08 10:28:23;;;;;;;14.03;6.70;;;1.00;99.90;;;;;;4994299;28;20084;-78
2021/01/08 10:30:51;;;;;;;19.53;8.50;;;1.10;99.90;;;;;;5011244;28;20572;-79
2021/01/08 10:33:21;;;;;;;14.20;7.15;;;1.00;99.90;;;;;;5001834;28;20042;-79
2021/01/08 10:35:49;;;;;;;16.97;8.80;;;0.90;99.90;;;;;;5005364;28;20054;-80
2021/01/08 10:38:15;;;;;;;15.57;7.65;;;0.90;99.90;;;;;;4999649;28;20032;-81
2021/01/08 10:40:41;;;;;;;12.82;6.50;;;1.00;99.90;;;;;;4993983;28;20026;-79
2021/01/08 10:43:06;;;;;;;17.30;8.93;;;0.90;99.90;;;;;;4995323;28;20451;-79
2021/01/08 10:45:32;;;;;;;16.13;8.03;;;1.10;99.90;;;;;;4990379;28;20057;-78
2021/01/08 10:47:58;;;;;;;13.43;6.45;;;1.30;99.90;;;;;;4995819;28;20026;-79
2021/01/08 10:50:24;;;;;;;16.02;8.82;;;1.30;99.90;;;;;;4995454;28;20038;-79
2021/01/08 10:52:49;;;;;;;17.05;7.70;;;1.30;99.90;;;;;;4988659;28;20093;-77
2021/01/08 10:55:17;;;;;;;15.20;7.20;;;1.40;99.90;;;;;;4996111;28;20114;-91
2021/01/08 10:57:43;;;;;;;17.77;8.40;;;1.30;99.90;;;;;;5007765;28;20045;-89
2021/01/08 11:00:27;;;;;;;17.10;7.93;;;1.20;99.90;;;;;;5011678;28;20038;-84
2021/01/08 11:02:58;;;;;;;13.27;7.10;;;1.20;99.90;;;;;;5009546;28;20034;-90
2021/01/08 11:05:31;;;;;;;18.77;8.65;;;1.10;99.90;;;;;;5021578;28;20022;-91
2021/01/08 11:07:56;;;;;;;14.10;7.20;;;1.20;99.90;;;;;;5014415;28;20034;-90
2021/01/08 11:12:56;;;;;;;15.70;8.05;;;1.30;99.90;;;;;;5008328;28;20050;-91
2021/01/08 11:15:29;;;;;;;11.63;5.03;;;1.40;99.90;;;;;;5003835;28;20034;-92
2021/01/08 11:18:13;;;;;;;16.00;8.00;;;1.40;99.90;;;;;;5009021;28;20026;-91
2021/01/08 11:20:39;;;;;;;15.35;7.13;;;1.60;99.90;;;;;;4999400;28;20018;-91
2021/01/08 11:23:06;;;;;;;15.70;7.70;;;1.60;99.90;;;;;;4996630;28;20038;-89
2021/01/08 11:25:32;;;;;;;15.38;7.88;;;1.70;99.90;;;;;;4996656;28;20045;-87
2021/01/08 11:27:57;;;;;;;8.43;4.28;;;1.80;99.90;;;;;;4993191;28;20046;-82
2021/01/08 11:30:23;;;;;;;12.45;5.03;;;1.70;99.90;;;;;;4990368;28;20478;-79
2021/01/08 11:32:53;;;;;;;17.20;7.30;;;1.60;99.90;;;;;;4989791;28;20482;-80
2021/01/08 11:35:21;;;;;;;;;;;1.50;99.90;;;;;;4989556;28;20128;-79
2021/01/08 11:37:47;;;;;;;14.27;6.28;;;1.70;99.90;;;;;;4988349;28;19918;-80
2021/01/08 11:40:13;;;;;;;12.77;5.47;;;1.70;99.90;;;;;;4988458;28;20038;-78
2021/01/08 11:42:38;;;;;;;13.07;7.00;;;1.70;99.90;;;;;;4989432;28;20453;-79
2021/01/08 11:45:05;;;;;;;9.52;4.80;;;1.80;99.90;;;;;;4990401;28;20045;-79
2021/01/08 11:47:34;;;;;;;14.07;6.43;;;1.80;99.90;;;;;;4988151;28;20030;-78
2021/01/08 11:50:04;;;;;;;7.90;3.65;;;1.70;99.90;;;;;;4989328;28;20065;-79
2021/01/08 11:52:30;;;;;;;14.63;7.47;;;1.40;99.90;;;;;;4988496;28;20050;-79
2021/01/08 11:54:55;;;;;;;12.68;6.40;;;1.40;99.90;;;;;;4988465;28;20026;-79
2021/01/08 11:57:21;;;;;;;13.80;6.88;;;1.50;99.90;;;;;;4989609;28;20037;-80
2021/01/08 11:59:47;;;;;;;16.27;7.20;;;1.60;99.90;;;;;;4973388;28;20548;-80
2021/01/08 12:02:13;;;;;;;10.90;6.28;;;1.70;99.90;;;;;;4988406;28;20040;-83
2021/01/08 12:04:38;;;;;;;11.50;5.85;;;1.50;99.90;;;;;;4955165;28;20409;-80
2021/01/08 12:07:04;;;;;;;13.00;6.60;;;1.80;99.90;;;;;;4972955;28;20030;-80
2021/01/08 12:09:31;;;;;;;13.15;7.00;;;1.90;99.90;;;;;;4987779;28;20642;-78
2021/01/08 12:12:02;;;;;;;11.45;5.68;;;1.70;99.90;;;;;;4976384;28;20502;-79
2021/01/08 12:14:32;;;;;;;15.00;5.55;;;1.60;99.90;;;;;;4966632;28;20093;-89
2021/01/08 12:17:09;;;;;;;13.98;6.47;;;1.70;99.90;;;;;;4953978;28;20030;-81
2021/01/08 12:19:36;;;;;;;15.05;7.38;;;1.70;99.90;;;;;;4965543;28;20035;-81
2021/01/08 12:22:05;;;;;;;13.63;6.70;;;1.60;99.90;;;;;;4969631;28;20421;-79
2021/01/08 12:24:31;;;;;;;;;;;1.70;99.90;;;;;;4972161;28;20109;-80
2021/01/08 12:26:57;;;;;;;14.43;7.13;;;1.70;99.90;;;;;;4971419;28;20389;-82
2021/01/08 12:29:23;;;;;;;10.05;5.43;;;1.60;99.90;;;;;;4972768;28;20042;-80
2021/01/08 12:31:49;;;;;;;13.05;6.10;;;1.50;99.90;;;;;;4971214;28;20513;-81
2021/01/08 12:34:15;;;;;;;8.10;4.50;;;1.50;99.90;;;;;;4980731;28;20038;-81
2021/01/08 12:36:42;;;;;;;15.00;7.10;;;1.30;99.90;;;;;;4940402;28;20054;-81
2021/01/08 12:39:08;;;;;;;12.00;5.55;;;1.30;99.90;;;;;;4971961;28;20042;-80
2021/01/08 12:41:34;;;;;;;12.77;6.67;;;1.20;99.90;;;;;;4970376;28;20376;-82
2021/01/08 12:44:00;;;;;;;12.07;5.25;;;1.20;99.90;;;;;;4983309;28;20049;-85
2021/01/08 12:46:26;;;;;;;11.18;4.63;;;1.20;99.90;;;;;;4984724;28;20011;-85